createdAt,value
2023-04-28T00:00:34.794Z,94887.00
2023-04-28T00:01:34.791Z,94880.00
2023-04-28T00:02:34.966Z,94887.00
2023-04-28T00:03:35.001Z,94880.00
2023-04-28T00:04:35.209Z,94872.00
2023-04-28T00:05:34.946Z,94872.00
2023-04-28T00:06:35.006Z,94870.00
2023-04-28T00:07:35.022Z,94870.00
2023-04-28T00:08:35.034Z,94874.00
2023-04-28T00:09:35.117Z,94870.00
2023-04-28T00:10:35.113Z,94868.00
2023-04-28T00:11:35.159Z,94870.00
2023-04-28T00:12:35.206Z,94874.00
2023-04-28T00:13:35.206Z,94866.00
2023-04-28T00:14:35.247Z,94864.00
2023-04-28T00:15:35.295Z,94864.00
2023-04-28T00:16:35.366Z,94866.00
2023-04-28T00:17:35.422Z,94864.00
2023-04-28T00:18:35.426Z,94864.00
2023-04-28T00:19:35.484Z,94862.00
2023-04-28T00:20:35.512Z,94866.00
2023-04-28T00:21:35.521Z,94866.00
2023-04-28T00:22:35.598Z,94864.00
2023-04-28T00:23:35.635Z,94866.00
2023-04-28T00:24:35.601Z,94862.00
2023-04-28T00:25:35.626Z,94864.00
2023-04-28T00:26:35.626Z,94864.00
2023-04-28T00:27:35.635Z,94866.00
2023-04-28T00:28:35.676Z,94870.00
2023-04-28T00:29:35.691Z,94870.00
2023-04-28T00:30:35.685Z,94872.00
2023-04-28T00:31:35.838Z,94874.00
2023-04-28T00:32:35.810Z,94872.00
2023-04-28T00:33:35.733Z,94876.00
2023-04-28T00:34:35.786Z,94880.00
2023-04-28T00:35:35.785Z,94880.00
2023-04-28T00:36:35.898Z,94887.00
2023-04-28T00:37:35.788Z,94880.00
2023-04-28T00:38:35.843Z,94878.00
2023-04-28T00:39:35.849Z,94876.00
2023-04-28T00:40:35.853Z,94874.00
2023-04-28T00:41:35.855Z,94874.00
2023-04-28T00:42:35.907Z,94876.00
2023-04-28T00:43:35.979Z,94876.00
2023-04-28T00:44:36.048Z,94874.00
2023-04-28T00:45:36.122Z,94874.00
2023-04-28T00:46:36.066Z,94870.00
2023-04-28T00:47:36.098Z,94870.00
2023-04-28T00:48:36.072Z,94870.00
2023-04-28T00:49:36.072Z,94872.00
2023-04-28T00:50:36.122Z,94868.00
2023-04-28T00:51:36.113Z,94868.00
2023-04-28T00:52:36.126Z,94868.00
2023-04-28T00:53:36.141Z,94872.00
2023-04-28T00:54:36.148Z,94868.00
2023-04-28T00:55:36.181Z,94868.00
2023-04-28T00:56:36.198Z,94868.00
2023-04-28T00:57:36.233Z,94866.00
2023-04-28T00:58:36.302Z,94868.00
2023-04-28T00:59:36.307Z,94868.00
2023-04-28T01:00:37.130Z,94868.00
2023-04-28T01:01:36.416Z,94868.00
2023-04-28T01:02:36.586Z,94868.00
2023-04-28T01:03:36.508Z,94862.00
2023-04-28T01:04:36.491Z,94862.00
2023-04-28T01:05:36.422Z,94856.00
2023-04-28T01:06:36.496Z,94856.00
2023-04-28T01:07:36.492Z,94854.00
2023-04-28T01:08:36.587Z,94854.00
2023-04-28T01:09:36.522Z,94854.00
2023-04-28T01:10:36.572Z,94856.00
2023-04-28T01:11:36.565Z,94850.00
2023-04-28T01:12:36.633Z,94852.00
2023-04-28T01:13:36.652Z,94852.00
2023-04-28T01:14:36.672Z,94848.00
2023-04-28T01:15:36.717Z,94844.00
2023-04-28T01:16:36.841Z,94844.00
2023-04-28T01:17:36.844Z,94844.00
2023-04-28T01:18:36.819Z,94846.00
2023-04-28T01:19:36.800Z,94848.00
2023-04-28T01:20:36.843Z,94850.00
2023-04-28T01:21:36.860Z,94848.00
2023-04-28T01:22:36.923Z,94848.00
2023-04-28T01:23:36.984Z,94848.00
2023-04-28T01:24:36.961Z,94848.00
2023-04-28T01:25:36.953Z,94848.00
2023-04-28T01:26:37.495Z,94850.00
2023-04-28T01:27:37.040Z,94844.00
2023-04-28T01:28:37.043Z,94846.00
2023-04-28T01:29:37.085Z,94844.00
2023-04-28T01:30:37.208Z,94844.00
2023-04-28T01:31:37.196Z,94842.00
2023-04-28T01:32:37.196Z,94838.00
2023-04-28T01:33:37.193Z,94840.00
2023-04-28T01:34:37.177Z,94840.00
2023-04-28T01:35:37.199Z,94842.00
2023-04-28T01:36:37.874Z,94838.00
2023-04-28T01:37:37.235Z,94840.00
2023-04-28T01:38:37.255Z,94842.00
2023-04-28T01:39:37.275Z,94838.00
2023-04-28T01:40:37.309Z,94838.00
2023-04-28T01:41:37.312Z,94836.00
2023-04-28T01:42:37.330Z,94836.00
2023-04-28T01:43:37.324Z,94838.00
2023-04-28T01:44:37.347Z,94842.00
2023-04-28T01:45:37.394Z,94836.00
2023-04-28T01:46:37.507Z,94840.00
2023-04-28T01:47:37.460Z,94838.00
2023-04-28T01:48:37.508Z,94834.00
2023-04-28T01:49:37.541Z,94834.00
2023-04-28T01:50:37.522Z,94834.00
2023-04-28T01:51:37.575Z,94838.00
2023-04-28T01:52:37.604Z,94838.00
2023-04-28T01:53:37.641Z,94840.00
2023-04-28T01:54:37.674Z,94840.00
2023-04-28T01:55:37.840Z,94840.00
2023-04-28T01:56:37.734Z,94834.00
2023-04-28T01:57:37.755Z,94836.00
2023-04-28T01:58:37.823Z,94834.00
2023-04-28T01:59:37.814Z,94836.00
2023-04-28T02:00:37.844Z,94838.00
2023-04-28T02:01:37.921Z,94838.00
2023-04-28T02:02:37.996Z,94838.00
2023-04-28T02:03:38.115Z,94842.00
2023-04-28T02:04:37.956Z,94842.00
2023-04-28T02:05:37.972Z,94842.00
2023-04-28T02:06:37.977Z,94844.00
2023-04-28T02:07:38.005Z,94844.00
2023-04-28T02:08:38.055Z,94844.00
2023-04-28T02:09:38.081Z,94848.00
2023-04-28T02:10:38.073Z,94846.00
2023-04-28T02:11:38.143Z,94846.00
2023-04-28T02:12:38.185Z,94846.00
2023-04-28T02:13:38.236Z,94842.00
2023-04-28T02:14:38.310Z,94840.00
2023-04-28T02:15:38.268Z,94836.00
2023-04-28T02:16:38.297Z,94831.00
2023-04-28T02:17:38.326Z,94829.00
2023-04-28T02:18:38.320Z,94829.00
2023-04-28T02:19:38.298Z,94829.00
2023-04-28T02:20:38.338Z,94827.00
2023-04-28T02:21:38.382Z,94827.00
2023-04-28T02:22:38.359Z,94829.00
2023-04-28T02:23:38.388Z,94829.00
2023-04-28T02:24:38.404Z,94827.00
2023-04-28T02:25:38.450Z,94827.00
2023-04-28T02:26:39.161Z,94827.00
2023-04-28T02:27:38.578Z,94829.00
2023-04-28T02:28:38.627Z,94829.00
2023-04-28T02:29:38.690Z,94829.00
2023-04-28T02:30:38.759Z,94829.00
2023-04-28T02:31:38.809Z,94823.00
2023-04-28T02:32:38.864Z,94821.00
2023-04-28T02:33:38.971Z,94817.00
2023-04-28T02:34:38.897Z,94813.00
2023-04-28T02:35:38.922Z,94813.00
2023-04-28T02:36:38.922Z,94815.00
2023-04-28T02:37:38.939Z,94815.00
2023-04-28T02:38:38.951Z,94817.00
2023-04-28T02:39:39.010Z,94813.00
2023-04-28T02:40:38.986Z,94815.00
2023-04-28T02:41:39.008Z,94817.00
2023-04-28T02:42:39.053Z,94815.00
2023-04-28T02:43:39.057Z,94811.00
2023-04-28T02:44:39.099Z,94811.00
2023-04-28T02:45:39.145Z,94811.00
2023-04-28T02:46:39.176Z,94809.00
2023-04-28T02:47:39.308Z,94809.00
2023-04-28T02:48:39.198Z,94811.00
2023-04-28T02:49:39.249Z,94813.00
2023-04-28T02:50:39.302Z,94813.00
2023-04-28T02:51:39.300Z,94811.00
2023-04-28T02:52:39.305Z,94805.00
2023-04-28T02:53:39.321Z,94799.00
2023-04-28T02:54:39.346Z,94803.00
2023-04-28T02:55:39.373Z,94801.00
2023-04-28T02:56:39.447Z,94793.00
2023-04-28T02:57:39.480Z,94795.00
2023-04-28T02:58:39.497Z,94793.00
2023-04-28T02:59:39.483Z,94789.00
2023-04-28T03:00:39.551Z,94785.00
2023-04-28T03:01:39.632Z,94787.00
2023-04-28T03:02:39.623Z,94783.00
2023-04-28T03:03:39.801Z,94782.00
2023-04-28T03:04:39.655Z,94778.00
2023-04-28T03:05:39.679Z,94780.00
2023-04-28T03:06:39.661Z,94776.00
2023-04-28T03:07:39.697Z,94774.00
2023-04-28T03:08:39.688Z,94774.00
2023-04-28T03:09:41.164Z,94772.00
2023-04-28T03:10:39.828Z,94770.00
2023-04-28T03:11:40.189Z,94774.00
2023-04-28T03:12:39.874Z,94776.00
2023-04-28T03:13:39.968Z,94778.00
2023-04-28T03:14:39.985Z,94780.00
2023-04-28T03:15:40.002Z,94776.00
2023-04-28T03:16:40.132Z,94778.00
2023-04-28T03:17:40.142Z,94780.00
2023-04-28T03:18:40.175Z,94778.00
2023-04-28T03:19:40.174Z,94778.00
2023-04-28T03:20:40.228Z,94774.00
2023-04-28T03:21:40.227Z,94768.00
2023-04-28T03:22:40.531Z,94764.00
2023-04-28T03:23:40.309Z,94760.00
2023-04-28T03:24:40.353Z,94760.00
2023-04-28T03:25:40.363Z,94758.00
2023-04-28T03:26:40.346Z,94754.00
2023-04-28T03:27:40.407Z,94758.00
2023-04-28T03:28:40.961Z,94754.00
2023-04-28T03:29:40.466Z,94760.00
2023-04-28T03:30:40.453Z,94758.00
2023-04-28T03:31:40.548Z,94758.00
2023-04-28T03:32:40.669Z,94760.00
2023-04-28T03:33:40.673Z,94762.00
2023-04-28T03:34:40.570Z,94764.00
2023-04-28T03:35:40.609Z,94766.00
2023-04-28T03:36:40.613Z,94766.00
2023-04-28T03:37:40.646Z,94766.00
2023-04-28T03:38:40.717Z,94766.00
2023-04-28T03:39:40.723Z,94764.00
2023-04-28T03:40:40.734Z,94766.00
2023-04-28T03:41:40.769Z,94766.00
2023-04-28T03:42:40.810Z,94766.00
2023-04-28T03:43:40.836Z,94764.00
2023-04-28T03:44:40.813Z,94764.00
2023-04-28T03:45:40.880Z,94764.00
2023-04-28T03:46:40.878Z,94760.00
2023-04-28T03:47:40.868Z,94762.00
2023-04-28T03:48:40.894Z,94762.00
2023-04-28T03:49:40.898Z,94762.00
2023-04-28T03:50:40.966Z,94768.00
2023-04-28T03:51:40.928Z,94770.00
2023-04-28T03:52:40.951Z,94768.00
2023-04-28T03:53:40.962Z,94772.00
2023-04-28T03:54:40.972Z,94772.00
2023-04-28T03:55:40.984Z,94772.00
2023-04-28T03:56:41.015Z,94768.00
2023-04-28T03:57:41.438Z,94766.00
2023-04-28T03:58:41.186Z,94764.00
2023-04-28T03:59:41.247Z,94764.00
2023-04-28T04:00:41.304Z,94762.00
2023-04-28T04:01:41.357Z,94762.00
2023-04-28T04:02:41.586Z,94760.00
2023-04-28T04:03:41.720Z,94764.00
2023-04-28T04:04:41.584Z,94762.00
2023-04-28T04:05:41.588Z,94764.00
2023-04-28T04:06:41.543Z,94766.00
2023-04-28T04:07:41.552Z,94766.00
2023-04-28T04:08:41.558Z,94764.00
2023-04-28T04:09:41.614Z,94762.00
2023-04-28T04:10:41.624Z,94764.00
2023-04-28T04:11:41.627Z,94764.00
2023-04-28T04:12:41.671Z,94762.00
2023-04-28T04:13:41.707Z,94758.00
2023-04-28T04:14:41.769Z,94754.00
2023-04-28T04:15:41.889Z,94756.00
2023-04-28T04:16:41.874Z,94756.00
2023-04-28T04:17:42.035Z,94760.00
2023-04-28T04:18:41.898Z,94762.00
2023-04-28T04:19:41.948Z,94762.00
2023-04-28T04:20:41.983Z,94762.00
2023-04-28T04:21:41.977Z,94760.00
2023-04-28T04:22:42.004Z,94760.00
2023-04-28T04:23:42.048Z,94766.00
2023-04-28T04:24:42.049Z,94764.00
2023-04-28T04:25:42.062Z,94764.00
2023-04-28T04:26:42.165Z,94766.00
2023-04-28T04:27:42.128Z,94764.00
2023-04-28T04:28:42.132Z,94766.00
2023-04-28T04:29:42.205Z,94766.00
2023-04-28T04:30:42.204Z,94764.00
2023-04-28T04:31:42.213Z,94762.00
2023-04-28T04:32:42.260Z,94760.00
2023-04-28T04:33:42.254Z,94762.00
2023-04-28T04:34:42.235Z,94764.00
2023-04-28T04:35:42.248Z,94764.00
2023-04-28T04:36:42.524Z,94766.00
2023-04-28T04:37:42.292Z,94766.00
2023-04-28T04:38:42.346Z,94770.00
2023-04-28T04:39:42.383Z,94766.00
2023-04-28T04:40:42.423Z,94770.00
2023-04-28T04:41:42.434Z,94770.00
2023-04-28T04:42:42.434Z,94768.00
2023-04-28T04:43:42.452Z,94766.00
2023-04-28T04:44:42.505Z,94768.00
2023-04-28T04:45:42.503Z,94768.00
2023-04-28T04:46:42.539Z,94770.00
2023-04-28T04:47:42.622Z,94766.00
2023-04-28T04:48:42.594Z,94768.00
2023-04-28T04:49:42.587Z,94770.00
2023-04-28T04:50:42.591Z,94770.00
2023-04-28T04:51:42.604Z,94768.00
2023-04-28T04:52:42.597Z,94768.00
2023-04-28T04:53:42.656Z,94768.00
2023-04-28T04:54:42.702Z,94766.00
2023-04-28T04:55:43.250Z,94766.00
2023-04-28T04:56:42.809Z,94764.00
2023-04-28T04:57:42.785Z,94766.00
2023-04-28T04:58:42.843Z,94762.00
2023-04-28T04:59:42.830Z,94762.00
2023-04-28T05:00:42.899Z,94768.00
2023-04-28T05:01:42.944Z,94774.00
2023-04-28T05:02:43.089Z,94774.00
2023-04-28T05:03:43.116Z,94783.00
2023-04-28T05:04:43.280Z,94783.00
2023-04-28T05:05:44.917Z,94785.00
2023-04-28T05:06:43.022Z,94782.00
2023-04-28T05:07:43.003Z,94782.00
2023-04-28T05:08:43.045Z,94780.00
2023-04-28T05:09:43.018Z,94780.00
2023-04-28T05:10:43.021Z,94783.00
2023-04-28T05:11:42.970Z,94782.00
2023-04-28T05:12:42.975Z,94789.00
2023-04-28T05:13:42.972Z,94797.00
2023-04-28T05:14:42.984Z,94799.00
2023-04-28T05:15:42.949Z,94799.00
2023-04-28T05:16:43.003Z,94799.00
2023-04-28T05:17:42.976Z,94803.00
2023-04-28T05:18:42.969Z,94803.00
2023-04-28T05:19:42.936Z,94805.00
2023-04-28T05:20:42.916Z,94803.00
2023-04-28T05:21:42.909Z,94805.00
2023-04-28T05:22:42.924Z,94805.00
2023-04-28T05:23:42.903Z,94803.00
2023-04-28T05:24:42.904Z,94805.00
2023-04-28T05:25:42.907Z,94801.00
2023-04-28T05:26:42.917Z,94799.00
2023-04-28T05:27:42.888Z,94801.00
2023-04-28T05:28:42.852Z,94797.00
2023-04-28T05:29:42.849Z,94801.00
2023-04-28T05:30:42.828Z,94799.00
2023-04-28T05:31:42.867Z,94805.00
2023-04-28T05:32:42.866Z,94811.00
2023-04-28T05:33:42.855Z,94811.00
2023-04-28T05:34:42.860Z,94809.00
2023-04-28T05:35:42.934Z,94811.00
2023-04-28T05:36:42.822Z,94813.00
2023-04-28T05:37:42.847Z,94813.00
2023-04-28T05:38:42.804Z,94817.00
2023-04-28T05:39:42.821Z,94819.00
2023-04-28T05:40:42.791Z,94821.00
2023-04-28T05:41:42.769Z,94821.00
2023-04-28T05:42:43.305Z,94819.00
2023-04-28T05:43:42.817Z,94819.00
2023-04-28T05:44:43.183Z,94823.00
2023-04-28T05:45:42.803Z,94821.00
2023-04-28T05:46:42.802Z,94825.00
2023-04-28T05:47:42.760Z,94823.00
2023-04-28T05:48:42.740Z,94823.00
2023-04-28T05:49:42.792Z,94827.00
2023-04-28T05:50:42.746Z,94827.00
2023-04-28T05:51:42.730Z,94829.00
2023-04-28T05:52:42.689Z,94823.00
2023-04-28T05:53:42.713Z,94821.00
2023-04-28T05:54:42.681Z,94833.00
2023-04-28T05:55:42.684Z,94831.00
2023-04-28T05:56:42.684Z,94831.00
2023-04-28T05:57:52.307Z,94836.00
2023-04-28T05:58:43.669Z,94838.00
2023-04-28T05:59:42.682Z,94838.00
2023-04-28T06:00:42.726Z,94838.00
2023-04-28T06:01:42.653Z,94840.00
2023-04-28T06:02:42.722Z,94838.00
2023-04-28T06:03:42.734Z,94842.00
2023-04-28T06:04:42.850Z,94846.00
2023-04-28T06:05:43.165Z,94846.00
2023-04-28T06:06:42.653Z,94844.00
2023-04-28T06:07:42.661Z,94844.00
2023-04-28T06:08:42.663Z,94848.00
2023-04-28T06:09:42.592Z,94844.00
2023-04-28T06:10:42.613Z,94848.00
2023-04-28T06:11:42.587Z,94856.00
2023-04-28T06:12:42.591Z,94860.00
2023-04-28T06:13:42.605Z,94858.00
2023-04-28T06:14:42.659Z,94858.00
2023-04-28T06:15:42.744Z,94860.00
2023-04-28T06:16:42.705Z,94860.00
2023-04-28T06:17:42.808Z,94868.00
2023-04-28T06:18:42.765Z,94868.00
2023-04-28T06:19:42.757Z,94868.00
2023-04-28T06:20:42.812Z,94866.00
2023-04-28T06:21:42.802Z,94872.00
2023-04-28T06:22:42.854Z,94874.00
2023-04-28T06:23:42.822Z,94876.00
2023-04-28T06:24:42.876Z,94878.00
2023-04-28T06:25:42.868Z,94876.00
2023-04-28T06:26:42.902Z,94878.00
2023-04-28T06:27:42.926Z,94889.00
2023-04-28T06:28:42.952Z,94887.00
2023-04-28T06:29:42.971Z,94887.00
2023-04-28T06:30:43.079Z,94889.00
2023-04-28T06:31:43.268Z,94889.00
2023-04-28T06:32:43.159Z,94893.00
2023-04-28T06:33:43.143Z,94895.00
2023-04-28T06:34:43.176Z,94895.00
2023-04-28T06:35:43.171Z,94893.00
2023-04-28T06:36:43.205Z,94893.00
2023-04-28T06:37:43.220Z,94897.00
2023-04-28T06:38:43.278Z,94895.00
2023-04-28T06:39:43.256Z,94895.00
2023-04-28T06:40:43.301Z,94891.00
2023-04-28T06:41:43.332Z,94893.00
2023-04-28T06:42:43.392Z,94897.00
2023-04-28T06:43:43.392Z,94897.00
2023-04-28T06:44:43.450Z,94899.00
2023-04-28T06:45:43.472Z,94899.00
2023-04-28T06:46:43.759Z,94897.00
2023-04-28T06:47:43.573Z,94895.00
2023-04-28T06:48:43.635Z,94897.00
2023-04-28T06:49:43.605Z,94895.00
2023-04-28T06:50:44.016Z,94895.00
2023-04-28T06:51:43.645Z,94897.00
2023-04-28T06:52:43.708Z,94897.00
2023-04-28T06:53:43.739Z,94899.00
2023-04-28T06:54:43.725Z,94901.00
2023-04-28T06:55:43.831Z,94901.00
2023-04-28T06:56:43.826Z,94901.00
2023-04-28T06:57:44.399Z,94899.00
2023-04-28T06:58:43.892Z,94897.00
2023-04-28T06:59:44.264Z,94897.00
2023-04-28T07:00:43.994Z,94897.00
2023-04-28T07:01:44.050Z,94895.00
2023-04-28T07:02:44.116Z,94895.00
2023-04-28T07:03:44.145Z,94893.00
2023-04-28T07:04:44.098Z,94893.00
2023-04-28T07:05:44.117Z,94891.00
2023-04-28T07:06:44.160Z,94893.00
2023-04-28T07:07:44.170Z,94893.00
2023-04-28T07:08:44.183Z,94893.00
2023-04-28T07:09:44.870Z,94893.00
2023-04-28T07:10:44.350Z,94889.00
2023-04-28T07:11:44.328Z,94889.00
2023-04-28T07:12:44.333Z,94887.00
2023-04-28T07:13:44.388Z,94889.00
2023-04-28T07:14:44.376Z,94889.00
2023-04-28T07:15:44.406Z,94889.00
2023-04-28T07:16:44.461Z,94891.00
2023-04-28T07:17:44.507Z,94891.00
2023-04-28T07:18:44.504Z,94887.00
2023-04-28T07:19:44.502Z,94893.00
2023-04-28T07:20:44.555Z,94893.00
2023-04-28T07:21:44.589Z,94891.00
2023-04-28T07:22:44.661Z,94891.00
2023-04-28T07:23:44.661Z,94880.00
2023-04-28T07:24:44.666Z,94887.00
2023-04-28T07:25:44.727Z,94887.00
2023-04-28T07:26:44.744Z,94880.00
2023-04-28T07:27:44.804Z,94880.00
2023-04-28T07:28:44.797Z,94876.00
2023-04-28T07:29:44.968Z,94878.00
2023-04-28T07:30:44.918Z,94878.00
2023-04-28T07:31:44.989Z,94880.00
2023-04-28T07:32:45.036Z,94880.00
2023-04-28T07:33:45.229Z,94887.00
2023-04-28T07:34:45.030Z,94889.00
2023-04-28T07:35:45.028Z,94891.00
2023-04-28T07:36:45.039Z,94893.00
2023-04-28T07:37:45.075Z,94878.00
2023-04-28T07:38:45.095Z,94880.00
2023-04-28T07:39:45.142Z,94880.00
2023-04-28T07:40:45.140Z,94878.00
2023-04-28T07:41:45.213Z,94876.00
2023-04-28T07:42:45.225Z,94874.00
2023-04-28T07:43:45.244Z,94872.00
2023-04-28T07:44:45.270Z,94870.00
2023-04-28T07:45:45.352Z,94876.00
2023-04-28T07:46:45.319Z,94880.00
2023-04-28T07:47:45.383Z,94887.00
2023-04-28T07:48:45.577Z,94893.00
2023-04-28T07:49:45.448Z,94897.00
2023-04-28T07:50:45.446Z,94899.00
2023-04-28T07:51:45.495Z,94905.00
2023-04-28T07:52:45.475Z,94903.00
2023-04-28T07:53:45.553Z,94905.00
2023-04-28T07:54:45.575Z,94901.00
2023-04-28T07:55:45.588Z,94901.00
2023-04-28T07:56:45.615Z,94899.00
2023-04-28T07:57:45.696Z,94897.00
2023-04-28T07:58:45.702Z,94893.00
2023-04-28T07:59:45.764Z,94895.00
2023-04-28T08:00:45.764Z,94899.00
2023-04-28T08:01:45.824Z,94901.00
2023-04-28T08:02:45.917Z,94899.00
2023-04-28T08:03:46.088Z,94901.00
2023-04-28T08:04:45.999Z,94903.00
2023-04-28T08:05:46.333Z,94903.00
2023-04-28T08:06:45.950Z,94899.00
2023-04-28T08:07:46.007Z,94899.00
2023-04-28T08:08:45.961Z,94903.00
2023-04-28T08:09:46.263Z,94901.00
2023-04-28T08:10:46.025Z,94905.00
2023-04-28T08:11:46.224Z,94905.00
2023-04-28T08:12:46.083Z,94907.00
2023-04-28T08:13:46.098Z,94907.00
2023-04-28T08:14:46.153Z,94903.00
2023-04-28T08:15:46.225Z,94907.00
2023-04-28T08:16:46.176Z,94905.00
2023-04-28T08:17:46.205Z,94911.00
2023-04-28T08:18:46.252Z,94909.00
2023-04-28T08:19:46.257Z,94909.00
2023-04-28T08:20:46.740Z,94911.00
2023-04-28T08:21:46.338Z,94911.00
2023-04-28T08:22:46.351Z,94911.00
2023-04-28T08:23:47.324Z,94911.00
2023-04-28T08:24:46.477Z,94917.00
2023-04-28T08:25:46.743Z,94917.00
2023-04-28T08:26:46.502Z,94917.00
2023-04-28T08:27:46.733Z,94917.00
2023-04-28T08:28:46.587Z,94915.00
2023-04-28T08:29:46.757Z,94915.00
2023-04-28T08:30:46.663Z,94915.00
2023-04-28T08:31:46.745Z,94917.00
2023-04-28T08:32:46.737Z,94917.00
2023-04-28T08:33:46.763Z,94917.00
2023-04-28T08:34:46.779Z,94921.00
2023-04-28T08:35:46.837Z,94919.00
2023-04-28T08:36:46.801Z,94919.00
2023-04-28T08:37:46.854Z,94921.00
2023-04-28T08:38:46.900Z,94919.00
2023-04-28T08:39:47.276Z,94917.00
2023-04-28T08:40:46.965Z,94915.00
2023-04-28T08:41:46.993Z,94917.00
2023-04-28T08:42:46.989Z,94913.00
2023-04-28T08:43:47.081Z,94917.00
2023-04-28T08:44:47.100Z,94915.00
2023-04-28T08:45:47.125Z,94917.00
2023-04-28T08:46:47.345Z,94913.00
2023-04-28T08:47:47.193Z,94915.00
2023-04-28T08:48:47.232Z,94911.00
2023-04-28T08:49:47.274Z,94909.00
2023-04-28T08:50:47.306Z,94905.00
2023-04-28T08:51:47.820Z,94907.00
2023-04-28T08:52:47.756Z,94909.00
2023-04-28T08:54:11.657Z,94911.00
2023-04-28T08:54:48.814Z,94913.00
2023-04-28T08:55:47.735Z,94915.00
2023-04-28T08:56:47.385Z,94913.00
2023-04-28T08:57:47.389Z,94911.00
2023-04-28T08:58:47.742Z,94911.00
2023-04-28T08:59:47.407Z,94913.00
2023-04-28T09:00:47.450Z,94911.00
2023-04-28T09:01:47.460Z,94909.00
2023-04-28T09:02:47.548Z,94911.00
2023-04-28T09:03:47.692Z,94909.00
2023-04-28T09:04:47.883Z,94915.00
2023-04-28T09:05:47.647Z,94913.00
2023-04-28T09:06:47.580Z,94913.00
2023-04-28T09:07:47.601Z,94911.00
2023-04-28T09:08:47.643Z,94911.00
2023-04-28T09:09:47.657Z,94909.00
2023-04-28T09:10:47.718Z,94911.00
2023-04-28T09:11:47.737Z,94913.00
2023-04-28T09:12:47.784Z,94913.00
2023-04-28T09:13:47.794Z,94913.00
2023-04-28T09:14:47.830Z,94913.00
2023-04-28T09:15:47.828Z,94913.00
2023-04-28T09:16:47.940Z,94917.00
2023-04-28T09:17:47.953Z,94915.00
2023-04-28T09:18:47.908Z,94917.00
2023-04-28T09:19:47.965Z,94913.00
2023-04-28T09:20:48.099Z,94917.00
2023-04-28T09:21:48.176Z,94911.00
2023-04-28T09:22:48.298Z,94913.00
2023-04-28T09:23:48.123Z,94911.00
2023-04-28T09:24:48.217Z,94911.00
2023-04-28T09:25:48.174Z,94907.00
2023-04-28T09:26:48.181Z,94909.00
2023-04-28T09:27:48.191Z,94909.00
2023-04-28T09:28:48.249Z,94907.00
2023-04-28T09:29:48.310Z,94911.00
2023-04-28T09:30:48.308Z,94911.00
2023-04-28T09:31:48.328Z,94907.00
2023-04-28T09:32:48.379Z,94907.00
2023-04-28T09:33:48.388Z,94909.00
2023-04-28T09:34:48.409Z,94909.00
2023-04-28T09:35:48.430Z,94905.00
2023-04-28T09:36:48.443Z,94907.00
2023-04-28T09:37:48.488Z,94905.00
2023-04-28T09:38:48.544Z,94911.00
2023-04-28T09:39:48.573Z,94905.00
2023-04-28T09:40:48.862Z,94905.00
2023-04-28T09:41:48.606Z,94905.00
2023-04-28T09:42:48.642Z,94907.00
2023-04-28T09:43:48.698Z,94909.00
2023-04-28T09:44:48.702Z,94905.00
2023-04-28T09:45:48.780Z,94905.00
2023-04-28T09:46:48.803Z,94903.00
2023-04-28T09:47:48.816Z,94903.00
2023-04-28T09:48:49.330Z,94903.00
2023-04-28T09:49:49.276Z,94907.00
2023-04-28T09:50:52.761Z,94905.00
2023-04-28T09:51:48.863Z,94907.00
2023-04-28T09:52:48.823Z,94913.00
2023-04-28T09:53:48.847Z,94911.00
2023-04-28T09:54:49.277Z,94907.00
2023-04-28T09:55:49.326Z,94909.00
2023-04-28T09:56:48.858Z,94905.00
2023-04-28T09:57:50.225Z,94903.00
2023-04-28T09:58:49.320Z,94903.00
2023-04-28T09:59:48.788Z,94905.00
2023-04-28T10:00:48.765Z,94909.00
2023-04-28T10:01:48.868Z,94903.00
2023-04-28T10:02:48.922Z,94909.00
2023-04-28T10:03:48.803Z,94905.00
2023-04-28T10:04:48.923Z,94907.00
2023-04-28T10:05:48.798Z,94909.00
2023-04-28T10:06:48.755Z,94905.00
2023-04-28T10:07:48.735Z,94907.00
2023-04-28T10:08:48.725Z,94907.00
2023-04-28T10:09:48.756Z,94907.00
2023-04-28T10:10:48.760Z,94909.00
2023-04-28T10:11:48.702Z,94905.00
2023-04-28T10:12:48.715Z,94903.00
2023-04-28T10:13:48.708Z,94897.00
2023-04-28T10:14:48.674Z,94897.00
2023-04-28T10:15:49.493Z,94895.00
2023-04-28T10:16:48.697Z,94893.00
2023-04-28T10:17:48.714Z,94895.00
2023-04-28T10:18:48.654Z,94895.00
2023-04-28T10:19:48.654Z,94897.00
2023-04-28T10:20:48.694Z,94899.00
2023-04-28T10:21:49.439Z,94897.00
2023-04-28T10:22:48.728Z,94897.00
2023-04-28T10:23:48.781Z,94897.00
2023-04-28T10:24:48.814Z,94891.00
2023-04-28T10:25:49.257Z,94893.00
2023-04-28T10:26:48.886Z,94895.00
2023-04-28T10:27:48.903Z,94893.00
2023-04-28T10:28:48.946Z,94891.00
2023-04-28T10:29:48.989Z,94893.00
2023-04-28T10:30:49.038Z,94895.00
2023-04-28T10:31:49.085Z,94895.00
2023-04-28T10:32:49.108Z,94891.00
2023-04-28T10:33:49.078Z,94889.00
2023-04-28T10:34:49.122Z,94887.00
2023-04-28T10:35:49.282Z,94889.00
2023-04-28T10:36:49.223Z,94887.00
2023-04-28T10:37:49.251Z,94887.00
2023-04-28T10:38:49.234Z,94880.00
2023-04-28T10:39:49.285Z,94887.00
2023-04-28T10:40:49.332Z,94878.00
2023-04-28T10:41:49.462Z,94880.00
2023-04-28T10:42:49.363Z,94878.00
2023-04-28T10:43:49.427Z,94874.00
2023-04-28T10:44:49.487Z,94874.00
2023-04-28T10:45:50.349Z,94866.00
2023-04-28T10:46:49.657Z,94866.00
2023-04-28T10:47:49.632Z,94870.00
2023-04-28T10:48:49.603Z,94868.00
2023-04-28T10:49:49.649Z,94864.00
2023-04-28T10:50:50.737Z,94868.00
2023-04-28T10:51:49.725Z,94868.00
2023-04-28T10:52:49.746Z,94866.00
2023-04-28T10:53:49.747Z,94870.00
2023-04-28T10:54:49.789Z,94866.00
2023-04-28T10:55:49.802Z,94864.00
2023-04-28T10:56:49.809Z,94868.00
2023-04-28T10:57:49.849Z,94866.00
2023-04-28T10:58:49.882Z,94864.00
2023-04-28T10:59:49.896Z,94860.00
2023-04-28T11:00:49.957Z,94854.00
2023-04-28T11:01:49.994Z,94856.00
2023-04-28T11:02:50.154Z,94856.00
2023-04-28T11:03:50.171Z,94860.00
2023-04-28T11:04:50.120Z,94860.00
2023-04-28T11:05:50.064Z,94862.00
2023-04-28T11:06:50.086Z,94858.00
2023-04-28T11:07:50.171Z,94858.00
2023-04-28T11:08:50.116Z,94854.00
2023-04-28T11:09:50.157Z,94854.00
2023-04-28T11:10:50.153Z,94860.00
2023-04-28T11:11:50.199Z,94852.00
2023-04-28T11:12:50.282Z,94850.00
2023-04-28T11:13:50.336Z,94854.00
2023-04-28T11:14:50.310Z,94850.00
2023-04-28T11:15:50.412Z,94848.00
2023-04-28T11:16:50.440Z,94846.00
2023-04-28T11:17:50.458Z,94844.00
2023-04-28T11:18:51.781Z,94842.00
2023-04-28T11:19:50.415Z,94838.00
2023-04-28T11:20:50.396Z,94834.00
2023-04-28T11:21:50.396Z,94833.00
2023-04-28T11:22:50.378Z,94831.00
2023-04-28T11:23:50.380Z,94829.00
2023-04-28T11:24:51.432Z,94827.00
2023-04-28T11:25:50.555Z,94827.00
2023-04-28T11:26:50.563Z,94819.00
2023-04-28T11:27:50.561Z,94819.00
2023-04-28T11:28:50.578Z,94819.00
2023-04-28T11:29:50.582Z,94819.00
2023-04-28T11:30:51.648Z,94821.00
2023-04-28T11:31:50.671Z,94823.00
2023-04-28T11:32:50.735Z,94819.00
2023-04-28T11:33:50.697Z,94811.00
2023-04-28T11:34:50.768Z,94815.00
2023-04-28T11:35:50.782Z,94815.00
2023-04-28T11:37:50.860Z,94809.00
2023-04-28T11:38:50.884Z,94803.00
2023-04-28T11:39:50.876Z,94805.00
2023-04-28T11:40:50.972Z,94809.00
2023-04-28T11:41:50.961Z,94815.00
2023-04-28T11:42:50.957Z,94821.00
2023-04-28T11:43:51.021Z,94827.00
2023-04-28T11:44:51.028Z,94829.00
2023-04-28T11:45:51.059Z,94827.00